Time;durP1;ratioP1;P1;durP2;ratioP2;P2;SDS_P1;SDS_P2;PMS_P1;PMS_P2;Temp;Humidity;BMP_temperature;BMP_pressure;BME280_temperature;BME280_humidity;BME280_pressure;Samples;Min_cycle;Max_cycle;Signal;HPM_P1;HPM_P2
2022/08/07 00:00:36;;;;;;;1.10;0.70;;;14.80;96.50;;;;;;4456664;28;10001209;-76
2022/08/07 00:03:01;;;;;;;2.10;0.95;;;14.80;96.50;;;;;;5058006;28;20267;-75
2022/08/07 00:05:27;;;;;;;1.00;0.90;;;14.70;96.40;;;;;;5061966;28;20465;-76
2022/08/07 00:07:54;;;;;;;1.60;0.90;;;14.80;96.60;;;;;;5056292;28;20037;-76
2022/08/07 00:10:22;;;;;;;1.77;0.90;;;14.80;96.80;;;;;;5055491;28;20047;-74
2022/08/07 00:12:48;;;;;;;1.45;1.05;;;14.70;96.80;;;;;;5063205;28;20046;-76
2022/08/07 00:15:14;;;;;;;4.15;1.02;;;14.70;97.00;;;;;;5054619;28;20466;-76
2022/08/07 00:17:40;;;;;;;1.88;1.10;;;14.70;97.00;;;;;;5053010;28;20033;-76
2022/08/07 00:20:06;;;;;;;1.77;1.00;;;14.70;97.10;;;;;;5047950;28;20027;-76
2022/08/07 00:22:32;;;;;;;3.30;1.00;;;14.60;97.20;;;;;;5058530;28;20021;-76
2022/08/07 00:24:57;;;;;;;1.73;1.00;;;14.60;97.40;;;;;;5055703;28;20079;-76
2022/08/07 00:27:23;;;;;;;3.15;1.23;;;14.60;97.50;;;;;;5058071;28;20009;-75
2022/08/07 00:29:49;;;;;;;5.32;1.15;;;14.60;97.50;;;;;;5054590;28;20032;-75
2022/08/07 00:32:15;;;;;;;3.28;1.10;;;14.50;97.70;;;;;;5059144;28;20517;-75
2022/08/07 00:34:41;;;;;;;1.63;1.05;;;14.50;97.70;;;;;;5053730;28;20036;-75
2022/08/07 00:37:07;;;;;;;3.53;1.00;;;14.50;98.00;;;;;;5059317;28;20390;-75
2022/08/07 00:39:34;;;;;;;2.08;0.80;;;14.50;98.10;;;;;;5059857;28;20038;-75
2022/08/07 00:42:00;;;;;;;1.30;0.80;;;14.50;98.40;;;;;;5051412;28;20040;-76
2022/08/07 00:44:26;;;;;;;1.73;0.90;;;14.50;98.30;;;;;;5049275;28;20096;-76
2022/08/07 00:46:51;;;;;;;2.65;0.90;;;14.50;98.40;;;;;;5053772;28;20289;-76
2022/08/07 00:49:17;;;;;;;1.90;0.80;;;14.40;98.30;;;;;;5049877;28;20082;-76
2022/08/07 00:51:43;;;;;;;0.88;0.68;;;14.40;98.50;;;;;;5051353;28;20036;-76
2022/08/07 00:54:09;;;;;;;1.20;0.70;;;14.40;98.60;;;;;;5055175;28;20546;-76
2022/08/07 00:56:35;;;;;;;1.38;0.60;;;14.40;98.60;;;;;;5056782;28;20115;-76
2022/08/07 00:59:02;;;;;;;1.88;0.60;;;14.40;98.70;;;;;;5056967;28;20159;-76
2022/08/07 01:01:28;;;;;;;1.20;0.70;;;14.40;98.80;;;;;;5051754;28;20677;-76
2022/08/07 01:03:54;;;;;;;1.27;0.70;;;14.40;99.10;;;;;;5050145;28;20028;-76
2022/08/07 01:06:20;;;;;;;2.28;0.73;;;14.40;98.80;;;;;;5055855;28;20392;-76
2022/08/07 01:08:46;;;;;;;1.88;0.52;;;14.40;99.00;;;;;;5048388;28;20033;-76
2022/08/07 01:11:16;;;;;;;2.17;0.57;;;14.40;99.10;;;;;;5055350;28;20036;-76
2022/08/07 01:13:42;;;;;;;1.55;0.70;;;14.40;99.30;;;;;;5052945;28;20445;-76
2022/08/07 01:16:08;;;;;;;1.73;0.77;;;14.40;99.50;;;;;;5047585;28;20071;-76
2022/08/07 01:18:35;;;;;;;3.60;0.68;;;14.30;99.80;;;;;;5066007;28;20523;-76
2022/08/07 01:21:14;;;;;;;1.35;0.80;;;14.30;99.90;;;;;;5047854;28;20047;-76
2022/08/07 01:23:41;;;;;;;0.68;0.68;;;14.20;99.90;;;;;;5044719;28;20025;-76
2022/08/07 01:26:09;;;;;;;1.85;0.80;;;14.20;99.90;;;;;;5049383;28;20021;-76
2022/08/07 01:28:35;;;;;;;1.08;0.75;;;14.10;99.90;;;;;;5056326;28;20032;-76
2022/08/07 01:31:01;;;;;;;1.38;0.88;;;14.10;99.90;;;;;;5053185;28;20066;-76
2022/08/07 01:33:28;;;;;;;1.80;1.10;;;14.00;99.90;;;;;;5059841;28;20333;-76
2022/08/07 01:35:56;;;;;;;1.33;0.98;;;14.00;99.90;;;;;;5057800;28;20029;-76
2022/08/07 01:38:23;;;;;;;2.08;1.30;;;14.00;99.90;;;;;;5063525;28;20045;-76
2022/08/07 01:40:49;;;;;;;3.38;1.35;;;14.00;99.90;;;;;;5057749;28;20134;-76
2022/08/07 01:43:15;;;;;;;2.40;1.20;;;13.90;99.90;;;;;;5055454;28;20442;-76
2022/08/07 01:45:42;;;;;;;1.55;1.10;;;13.80;99.90;;;;;;5066498;28;20040;-75
2022/08/07 01:48:08;;;;;;;5.82;1.23;;;13.80;99.90;;;;;;5061366;28;20028;-76
2022/08/07 01:50:36;;;;;;;4.43;1.23;;;13.70;99.90;;;;;;5069190;28;20028;-75
2022/08/07 01:53:04;;;;;;;3.28;1.23;;;13.70;99.90;;;;;;5052228;28;20587;-75
2022/08/07 01:55:46;;;;;;;1.48;0.95;;;13.70;99.90;;;;;;5068275;28;20496;-75
2022/08/07 01:58:14;;;;;;;2.58;1.23;;;13.60;99.90;;;;;;5063321;28;20036;-75
2022/08/07 02:00:41;;;;;;;5.60;1.23;;;13.60;99.90;;;;;;5051682;28;20033;-76
2022/08/07 02:03:10;;;;;;;4.68;1.10;;;13.60;99.90;;;;;;5061649;28;20111;-75
2022/08/07 02:05:41;;;;;;;1.27;0.80;;;13.50;99.90;;;;;;5054483;28;20274;-76
2022/08/07 02:08:11;;;;;;;1.48;0.82;;;13.60;99.90;;;;;;5060974;28;20052;-75
2022/08/07 02:10:38;;;;;;;1.75;0.90;;;13.60;99.90;;;;;;5061430;28;20042;-76
2022/08/07 02:13:04;;;;;;;3.38;1.35;;;13.60;99.90;;;;;;5052703;28;20041;-76
2022/08/07 02:15:31;;;;;;;5.18;1.10;;;13.70;99.90;;;;;;5051841;28;20075;-76
2022/08/07 02:17:58;;;;;;;1.35;1.00;;;13.70;99.90;;;;;;5056950;28;20090;-75
2022/08/07 02:20:24;;;;;;;1.75;0.90;;;13.70;99.90;;;;;;5065651;28;20037;-76
2022/08/07 02:22:56;;;;;;;1.05;0.93;;;13.70;99.90;;;;;;5055680;28;20097;-75
2022/08/07 02:25:24;;;;;;;2.00;1.10;;;13.70;99.90;;;;;;5060474;28;20516;-75
2022/08/07 02:27:51;;;;;;;1.70;1.00;;;13.70;99.90;;;;;;5054234;28;20052;-76
2022/08/07 02:30:17;;;;;;;1.20;0.95;;;13.70;99.90;;;;;;5049382;28;20103;-76
2022/08/07 02:32:44;;;;;;;1.63;1.00;;;13.70;99.90;;;;;;5060900;28;20108;-76
2022/08/07 02:35:10;;;;;;;1.63;0.90;;;13.60;99.90;;;;;;5059372;28;20261;-76
2022/08/07 02:37:39;;;;;;;3.35;1.23;;;13.60;99.90;;;;;;5068744;28;20049;-76
2022/08/07 02:40:06;;;;;;;1.27;1.00;;;13.70;99.90;;;;;;5066407;28;20103;-76
2022/08/07 02:42:33;;;;;;;2.80;1.23;;;13.70;99.90;;;;;;5064780;28;20527;-76
2022/08/07 02:45:01;;;;;;;1.85;1.10;;;13.70;99.90;;;;;;5053215;28;20078;-76
2022/08/07 02:47:27;;;;;;;1.95;1.27;;;13.60;99.90;;;;;;5059511;28;20028;-75
2022/08/07 02:49:53;;;;;;;1.80;1.10;;;13.60;99.90;;;;;;5052281;28;20029;-76
2022/08/07 02:52:25;;;;;;;1.20;1.10;;;13.50;99.90;;;;;;5058395;28;20090;-76
2022/08/07 02:54:52;;;;;;;1.98;1.35;;;13.50;99.90;;;;;;5051380;28;20029;-76
2022/08/07 02:57:21;;;;;;;1.63;1.10;;;13.40;99.90;;;;;;5055686;28;20039;-76
2022/08/07 02:59:49;;;;;;;4.20;1.10;;;13.40;99.90;;;;;;5061016;28;20489;-75
2022/08/07 03:02:15;;;;;;;2.33;1.00;;;13.30;99.90;;;;;;5061170;28;20036;-75
2022/08/07 03:04:44;;;;;;;1.17;0.93;;;13.40;99.90;;;;;;5062456;28;20063;-75
2022/08/07 03:07:11;;;;;;;1.45;0.90;;;13.30;99.90;;;;;;5058327;28;20036;-75
2022/08/07 03:09:37;;;;;;;1.80;1.02;;;13.30;99.90;;;;;;5074410;28;20048;-75
2022/08/07 03:12:07;;;;;;;3.70;1.15;;;13.30;99.90;;;;;;5062141;28;20037;-75
2022/08/07 03:14:35;;;;;;;1.23;1.08;;;13.30;99.90;;;;;;5057753;28;20046;-75
2022/08/07 03:17:02;;;;;;;2.10;1.10;;;13.30;99.90;;;;;;5065568;28;20019;-75
2022/08/07 03:19:28;;;;;;;3.95;1.55;;;13.30;99.90;;;;;;5062669;28;20033;-75
2022/08/07 03:21:55;;;;;;;4.55;1.27;;;13.30;99.90;;;;;;5049051;28;20025;-75
2022/08/07 03:24:21;;;;;;;3.85;1.00;;;13.20;99.90;;;;;;5061773;28;20024;-75
2022/08/07 03:26:51;;;;;;;2.92;1.27;;;13.20;99.90;;;;;;5056331;28;20114;-75
2022/08/07 03:29:18;;;;;;;1.88;1.17;;;13.20;99.90;;;;;;5060885;28;20372;-76
2022/08/07 03:31:46;;;;;;;4.30;1.00;;;13.10;99.90;;;;;;5066237;28;20055;-76
2022/08/07 03:34:15;;;;;;;1.88;0.90;;;13.10;99.90;;;;;;5051215;28;20093;-75
2022/08/07 03:36:41;;;;;;;2.00;1.13;;;13.00;99.90;;;;;;5058935;28;20038;-76
2022/08/07 03:39:10;;;;;;;2.17;1.20;;;13.00;99.90;;;;;;5051357;28;20123;-75
2022/08/07 03:41:37;;;;;;;4.00;1.20;;;13.00;99.90;;;;;;5053833;28;20518;-75
2022/08/07 03:44:03;;;;;;;1.15;0.98;;;13.00;99.90;;;;;;5053701;28;20035;-75
2022/08/07 03:46:30;;;;;;;1.95;1.00;;;12.90;99.90;;;;;;5058132;28;20500;-76
2022/08/07 03:48:56;;;;;;;1.42;1.10;;;12.90;99.90;;;;;;5056949;28;20028;-76
2022/08/07 03:51:22;;;;;;;2.28;1.20;;;12.90;99.90;;;;;;5051826;28;20067;-75
2022/08/07 03:53:48;;;;;;;1.15;1.00;;;12.90;99.90;;;;;;5063775;28;20080;-76
2022/08/07 03:56:21;;;;;;;1.65;1.10;;;12.90;99.90;;;;;;5059358;28;20221;-75
2022/08/07 03:58:47;;;;;;;1.42;1.20;;;12.80;99.90;;;;;;5060036;28;20336;-75
2022/08/07 04:01:16;;;;;;;2.00;1.02;;;12.80;99.90;;;;;;5052063;28;20575;-76
2022/08/07 04:03:42;;;;;;;3.50;1.20;;;12.80;99.90;;;;;;5050582;28;20032;-75
2022/08/07 04:06:09;;;;;;;1.67;1.20;;;12.80;99.90;;;;;;5059948;28;20044;-75
2022/08/07 04:08:37;;;;;;;4.43;1.27;;;12.80;99.90;;;;;;5051400;28;20106;-76
2022/08/07 04:11:04;;;;;;;5.63;1.05;;;12.80;99.90;;;;;;5050139;28;20124;-76
2022/08/07 04:13:31;;;;;;;1.67;1.10;;;12.70;99.90;;;;;;5057378;28;20028;-75
2022/08/07 04:15:57;;;;;;;2.53;1.13;;;12.70;99.90;;;;;;5051485;28;20036;-75
2022/08/07 04:18:23;;;;;;;1.92;1.17;;;12.70;99.90;;;;;;5065987;28;20332;-75
2022/08/07 04:20:49;;;;;;;3.83;1.20;;;12.80;99.90;;;;;;5048787;28;20039;-75
2022/08/07 04:23:15;;;;;;;1.45;1.35;;;12.80;99.90;;;;;;5058602;28;20110;-76
2022/08/07 04:25:41;;;;;;;1.90;1.30;;;12.70;99.90;;;;;;5054044;28;20437;-76
2022/08/07 04:28:09;;;;;;;1.95;1.10;;;12.80;99.90;;;;;;5053101;28;20127;-76
2022/08/07 04:30:35;;;;;;;1.92;1.33;;;12.80;99.90;;;;;;5063252;28;20028;-76
2022/08/07 04:33:06;;;;;;;2.78;1.20;;;12.80;99.90;;;;;;5048672;28;20024;-76
2022/08/07 04:35:32;;;;;;;4.13;1.70;;;12.80;99.90;;;;;;5058362;28;20076;-76
2022/08/07 04:37:57;;;;;;;1.45;1.05;;;12.80;99.90;;;;;;5062095;28;20166;-76
2022/08/07 04:40:23;;;;;;;2.63;1.20;;;12.80;99.90;;;;;;5055430;28;20128;-76
2022/08/07 04:42:49;;;;;;;1.98;1.30;;;12.90;99.90;;;;;;5058327;28;20398;-75
2022/08/07 04:45:14;;;;;;;3.75;1.45;;;12.80;99.90;;;;;;5050485;28;20473;-76
2022/08/07 04:47:53;;;;;;;1.42;1.30;;;12.80;99.90;;;;;;5053999;28;20025;-76
2022/08/07 04:50:38;;;;;;;1.60;1.23;;;12.80;99.90;;;;;;5067519;28;20598;-76
2022/08/07 04:53:06;;;;;;;2.80;1.30;;;12.80;99.90;;;;;;5052354;28;20066;-76
2022/08/07 04:55:41;;;;;;;3.60;1.60;;;12.80;99.90;;;;;;5047689;28;20081;-76
2022/08/07 04:58:26;;;;;;;1.70;1.30;;;12.90;99.90;;;;;;5064717;28;20040;-76
2022/08/07 05:01:02;;;;;;;2.95;1.42;;;12.90;99.90;;;;;;5055505;28;20043;-76
2022/08/07 05:03:42;;;;;;;2.05;1.38;;;13.00;99.90;;;;;;5062304;28;20029;-76
2022/08/07 05:06:17;;;;;;;3.25;1.13;;;13.00;99.90;;;;;;5050842;28;20051;-76
2022/08/07 05:09:02;;;;;;;1.55;1.20;;;13.10;99.90;;;;;;5058607;28;20064;-76
2022/08/07 05:11:34;;;;;;;2.60;1.17;;;13.10;99.90;;;;;;5073889;28;20049;-76
2022/08/07 05:14:10;;;;;;;4.05;1.50;;;13.20;99.90;;;;;;5056524;28;20025;-76
2022/08/07 05:16:38;;;;;;;1.27;0.90;;;13.20;99.90;;;;;;5073110;28;20029;-76
2022/08/07 05:19:10;;;;;;;2.92;1.27;;;13.20;99.90;;;;;;5060959;28;20173;-76
2022/08/07 05:21:37;;;;;;;1.17;1.02;;;13.20;99.90;;;;;;5061115;28;20477;-76
2022/08/07 05:24:07;;;;;;;1.30;1.20;;;13.20;99.90;;;;;;5054371;28;20021;-76
2022/08/07 05:26:34;;;;;;;1.60;1.20;;;13.20;99.90;;;;;;5054309;28;20029;-76
2022/08/07 05:29:01;;;;;;;2.63;1.30;;;13.20;99.90;;;;;;5060556;28;20035;-76
2022/08/07 05:31:32;;;;;;;1.42;0.90;;;13.30;99.90;;;;;;5056192;28;20024;-76
2022/08/07 05:33:59;;;;;;;1.13;0.98;;;13.30;99.90;;;;;;5060282;28;20032;-76
2022/08/07 05:36:27;;;;;;;0.98;0.95;;;13.30;99.90;;;;;;5049852;28;20029;-76
2022/08/07 05:38:54;;;;;;;2.80;1.08;;;13.30;99.90;;;;;;5063513;28;20045;-76
2022/08/07 05:41:20;;;;;;;1.25;1.00;;;13.30;99.90;;;;;;5064144;28;20073;-76
2022/08/07 05:43:49;;;;;;;1.52;1.30;;;13.20;99.90;;;;;;5061511;28;20036;-76
2022/08/07 05:46:18;;;;;;;1.42;1.20;;;13.10;99.90;;;;;;5061329;28;20020;-76
2022/08/07 05:48:44;;;;;;;1.25;0.95;;;12.90;99.90;;;;;;5066331;28;20497;-76
2022/08/07 05:51:11;;;;;;;2.15;1.30;;;12.90;99.90;;;;;;5065638;28;20039;-76
2022/08/07 05:53:37;;;;;;;2.17;1.00;;;12.80;99.90;;;;;;5062524;28;20029;-76
2022/08/07 05:56:03;;;;;;;1.15;1.00;;;12.80;99.90;;;;;;5060582;28;20085;-76
2022/08/07 05:58:30;;;;;;;0.98;0.98;;;12.80;99.90;;;;;;5047198;28;20029;-76
2022/08/07 06:00:56;;;;;;;1.75;0.93;;;12.80;99.90;;;;;;5061223;28;20119;-76
2022/08/07 06:03:23;;;;;;;1.50;1.08;;;12.90;99.90;;;;;;5057313;28;20089;-76
2022/08/07 06:05:50;;;;;;;2.30;1.08;;;13.10;99.90;;;;;;5057662;28;20101;-76
2022/08/07 06:08:16;;;;;;;2.15;0.90;;;13.30;99.90;;;;;;5059915;28;20090;-76
2022/08/07 06:10:42;;;;;;;1.60;1.10;;;13.40;99.90;;;;;;5057915;28;20033;-76
2022/08/07 06:13:08;;;;;;;1.15;0.90;;;13.60;99.90;;;;;;5052584;28;20376;-76
2022/08/07 06:15:35;;;;;;;2.33;0.98;;;13.60;99.90;;;;;;5061549;28;20028;-76
2022/08/07 06:18:01;;;;;;;1.58;1.02;;;13.70;99.90;;;;;;5070646;28;20392;-76
2022/08/07 06:20:28;;;;;;;1.13;1.00;;;13.80;99.90;;;;;;5052441;28;20107;-76
2022/08/07 06:22:55;;;;;;;1.55;1.00;;;13.80;99.90;;;;;;5064781;28;20033;-76
2022/08/07 06:25:21;;;;;;;0.90;0.90;;;13.70;99.90;;;;;;5053471;28;20135;-76
2022/08/07 06:27:47;;;;;;;1.67;0.90;;;13.70;99.90;;;;;;5065333;28;20034;-77
2022/08/07 06:30:13;;;;;;;3.03;1.10;;;13.60;99.90;;;;;;5060070;28;20103;-76
2022/08/07 06:32:39;;;;;;;1.25;1.05;;;13.60;99.90;;;;;;5053815;28;20040;-76
2022/08/07 06:35:05;;;;;;;1.77;0.95;;;13.60;99.90;;;;;;5059429;28;20033;-77
2022/08/07 06:37:30;;;;;;;1.95;1.00;;;13.60;99.90;;;;;;5056620;28;20040;-76
2022/08/07 06:39:56;;;;;;;2.63;0.82;;;13.80;99.90;;;;;;5074132;28;20024;-77
2022/08/07 06:42:36;;;;;;;1.08;0.90;;;13.90;99.90;;;;;;5057719;28;20739;-77
2022/08/07 06:45:07;;;;;;;2.35;1.00;;;14.10;99.90;;;;;;5063709;28;20070;-76
2022/08/07 06:47:33;;;;;;;2.30;1.17;;;14.20;99.90;;;;;;5049050;28;20044;-77
2022/08/07 06:49:59;;;;;;;4.10;1.00;;;14.40;99.90;;;;;;5056472;28;20025;-77
2022/08/07 06:52:31;;;;;;;1.45;1.17;;;14.70;99.90;;;;;;5064963;28;20796;-76
2022/08/07 06:54:59;;;;;;;2.63;0.90;;;15.00;99.90;;;;;;5059571;28;21261;-76
2022/08/07 06:57:26;;;;;;;2.03;1.02;;;15.30;99.90;;;;;;5056871;28;20523;-77
2022/08/07 06:59:54;;;;;;;1.58;1.00;;;15.60;99.90;;;;;;5063732;28;20036;-76
2022/08/07 07:02:21;;;;;;;3.13;1.08;;;15.90;99.90;;;;;;5050789;28;20029;-76
2022/08/07 07:04:48;;;;;;;0.95;0.85;;;16.30;99.90;;;;;;5051348;28;20025;-76
2022/08/07 07:07:14;;;;;;;2.55;1.08;;;16.60;99.90;;;;;;5070799;28;20041;-77
2022/08/07 07:09:50;;;;;;;3.17;0.90;;;17.00;99.90;;;;;;5054534;28;20033;-77
2022/08/07 07:12:25;;;;;;;2.35;1.00;;;17.40;99.90;;;;;;5056214;28;20044;-77
2022/08/07 07:14:59;;;;;;;1.65;0.80;;;17.70;99.90;;;;;;5052667;28;20036;-77
2022/08/07 07:17:36;;;;;;;1.70;0.90;;;18.00;99.90;;;;;;5062652;28;20099;-77
2022/08/07 07:20:07;;;;;;;3.65;0.80;;;18.30;99.90;;;;;;5053138;28;20083;-77
2022/08/07 07:22:33;;;;;;;1.13;0.70;;;18.60;99.90;;;;;;5054942;28;20044;-77
2022/08/07 07:25:01;;;;;;;0.70;0.60;;;18.80;99.90;;;;;;5063176;28;21239;-77
2022/08/07 07:27:32;;;;;;;2.60;0.73;;;19.00;99.90;;;;;;5058663;28;20053;-77
2022/08/07 07:30:01;;;;;;;2.15;0.70;;;19.20;99.90;;;;;;5059724;28;20032;-77
2022/08/07 07:32:30;;;;;;;1.25;0.52;;;19.30;99.90;;;;;;5059209;28;20060;-77
2022/08/07 07:34:59;;;;;;;0.50;0.50;;;19.50;99.90;;;;;;5059952;28;20036;-77
2022/08/07 07:37:28;;;;;;;0.70;0.45;;;19.70;99.90;;;;;;5050845;28;20045;-77
2022/08/07 07:39:59;;;;;;;2.25;0.60;;;19.90;99.90;;;;;;5051462;28;20115;-77
2022/08/07 07:42:26;;;;;;;2.05;0.60;;;20.10;99.60;;;;;;5054254;28;20051;-78
2022/08/07 07:44:52;;;;;;;2.33;0.60;;;20.30;98.40;;;;;;5056128;28;20037;-77
2022/08/07 07:47:19;;;;;;;1.20;0.50;;;20.40;96.80;;;;;;5058300;28;20028;-77
2022/08/07 07:49:47;;;;;;;0.90;0.43;;;20.50;95.20;;;;;;5060462;28;20069;-77
2022/08/07 07:52:14;;;;;;;1.05;0.43;;;20.60;93.60;;;;;;5055319;28;20032;-78
2022/08/07 07:54:42;;;;;;;1.63;0.40;;;20.70;92.40;;;;;;5050104;28;20032;-78
2022/08/07 07:57:10;;;;;;;1.58;0.40;;;20.80;91.40;;;;;;5049715;28;20406;-78
2022/08/07 07:59:39;;;;;;;1.00;0.40;;;20.90;91.50;;;;;;5063284;28;20761;-78
2022/08/07 08:02:05;;;;;;;2.25;0.40;;;21.00;90.60;;;;;;5049128;28;20434;-78
2022/08/07 08:04:32;;;;;;;2.88;0.40;;;21.10;91.00;;;;;;5054436;28;20020;-78
2022/08/07 08:07:00;;;;;;;2.45;0.60;;;21.00;90.30;;;;;;5056238;28;20029;-78
2022/08/07 08:09:26;;;;;;;1.02;0.45;;;21.00;89.00;;;;;;5056053;28;20043;-78
2022/08/07 08:11:53;;;;;;;0.47;0.40;;;21.10;89.50;;;;;;5052708;28;20032;-78
2022/08/07 08:14:18;;;;;;;0.60;0.40;;;21.10;88.20;;;;;;5059173;28;20036;-78
2022/08/07 08:16:45;;;;;;;1.00;0.38;;;21.20;87.80;;;;;;5056344;28;20021;-74
2022/08/07 08:19:14;;;;;;;0.82;0.40;;;21.30;86.00;;;;;;5051850;28;20032;-76
2022/08/07 08:27:32;;;;;;;0.77;0.38;;;21.40;88.90;;;;;;5056236;28;20621;-76
2022/08/07 08:30:10;;;;;;;2.42;0.50;;;21.40;90.50;;;;;;5052815;28;20037;-76
2022/08/07 08:32:40;;;;;;;0.95;0.40;;;21.40;91.70;;;;;;5054102;28;20037;-76
2022/08/07 08:35:09;;;;;;;1.25;0.22;;;21.40;91.20;;;;;;5055247;28;20115;-76
2022/08/07 08:37:36;;;;;;;1.25;0.40;;;21.40;91.00;;;;;;5054753;28;20037;-76
2022/08/07 08:40:09;;;;;;;0.68;0.30;;;21.40;90.60;;;;;;5066262;28;20043;-76
2022/08/07 08:42:45;;;;;;;2.35;0.30;;;21.50;90.70;;;;;;5054880;28;20028;-76
2022/08/07 08:45:30;;;;;;;1.30;0.40;;;21.60;89.50;;;;;;5052535;28;20059;-76
2022/08/07 08:48:13;;;;;;;3.38;0.47;;;21.70;88.80;;;;;;5052249;28;20036;-75
2022/08/07 08:50:51;;;;;;;0.40;0.40;;;21.60;86.80;;;;;;5044153;28;20094;-75
2022/08/07 08:53:41;;;;;;;1.65;0.40;;;21.60;88.10;;;;;;5058243;28;20033;-75
2022/08/07 08:56:15;;;;;;;1.40;0.43;;;21.70;86.50;;;;;;5063118;28;20024;-75
2022/08/07 08:59:02;;;;;;;0.30;0.30;;;21.90;88.50;;;;;;5054740;28;20029;-75
2022/08/07 09:01:32;;;;;;;0.93;0.50;;;21.90;84.70;;;;;;5054503;28;20481;-75
2022/08/07 09:04:21;;;;;;;0.65;0.30;;;21.90;85.90;;;;;;5058300;28;20045;-75
2022/08/07 09:07:04;;;;;;;0.57;0.30;;;21.90;85.20;;;;;;5053322;28;20035;-75
2022/08/07 09:10:00;;;;;;;2.60;0.50;;;22.00;87.20;;;;;;5054925;28;20025;-75
2022/08/07 09:12:39;;;;;;;0.93;0.30;;;21.90;84.90;;;;;;5042955;28;20047;-75
2022/08/07 09:15:11;;;;;;;0.55;0.30;;;21.70;84.80;;;;;;5053062;28;20519;-75
2022/08/07 09:17:43;;;;;;;2.25;0.38;;;21.70;84.00;;;;;;5053216;28;20500;-75
2022/08/07 09:20:17;;;;;;;0.77;0.38;;;21.70;83.10;;;;;;5054165;28;20493;-75
2022/08/07 09:23:01;;;;;;;1.65;0.50;;;21.80;82.00;;;;;;5056645;28;20086;-75
2022/08/07 09:25:46;;;;;;;0.70;0.40;;;21.80;82.10;;;;;;5059932;28;20033;-75
2022/08/07 09:28:26;;;;;;;2.92;0.35;;;21.90;81.70;;;;;;5053903;28;20158;-75
2022/08/07 09:31:13;;;;;;;1.90;0.30;;;22.00;80.70;;;;;;5046857;28;20033;-75
2022/08/07 09:34:06;;;;;;;1.00;0.30;;;22.00;83.20;;;;;;5061169;28;20070;-75
2022/08/07 09:36:38;;;;;;;1.08;0.40;;;22.00;81.50;;;;;;5057632;28;20024;-75
2022/08/07 09:39:23;;;;;;;0.40;0.20;;;22.00;80.30;;;;;;5058009;28;20041;-75
2022/08/07 09:42:10;;;;;;;0.70;0.40;;;22.00;77.70;;;;;;5066611;28;20041;-75
2022/08/07 09:45:03;;;;;;;0.50;0.30;;;22.10;78.80;;;;;;5055121;28;20029;-76
2022/08/07 09:47:29;;;;;;;0.77;0.37;;;22.20;75.80;;;;;;5056965;28;20489;-75
2022/08/07 09:50:01;;;;;;;1.52;0.30;;;22.30;74.10;;;;;;5059867;28;20069;-74
2022/08/07 09:52:35;;;;;;;2.97;0.30;;;22.40;73.70;;;;;;5050659;28;20025;-75
2022/08/07 09:55:21;;;;;;;1.10;0.30;;;;;;;;;;5061011;28;20036;-75
2022/08/07 09:57:55;;;;;;;2.90;0.32;;;22.80;84.40;;;;;;5061640;28;20056;-76
2022/08/07 10:00:23;;;;;;;0.75;0.30;;;22.90;92.30;;;;;;5061678;28;20078;-76
2022/08/07 10:03:00;;;;;;;0.90;0.30;;;23.00;94.60;;;;;;5054147;28;20485;-76
2022/08/07 10:05:47;;;;;;;0.55;0.35;;;23.00;70.70;;;;;;5048477;28;20163;-77
2022/08/07 10:08:19;;;;;;;1.85;0.50;;;22.90;71.80;;;;;;5053382;28;20035;-75
2022/08/07 10:11:03;;;;;;;0.65;0.43;;;22.80;64.60;;;;;;5066611;28;20027;-76
2022/08/07 10:13:39;;;;;;;5.50;0.70;;;22.60;64.00;;;;;;5064581;28;22004;-76
2022/08/07 10:16:15;;;;;;;2.80;0.35;;;22.40;63.30;;;;;;5053871;28;20107;-76
2022/08/07 10:19:17;;;;;;;1.38;0.40;;;22.40;64.10;;;;;;5055866;28;20033;-76
2022/08/07 10:21:51;;;;;;;1.55;0.25;;;22.50;64.70;;;;;;5051644;28;20036;-75
2022/08/07 10:24:46;;;;;;;0.95;0.30;;;22.70;64.90;;;;;;5052122;28;20032;-77
2022/08/07 10:27:36;;;;;;;1.15;0.40;;;22.70;62.70;;;;;;5056330;28;20348;-77
2022/08/07 10:30:31;;;;;;;0.32;0.32;;;22.70;63.00;;;;;;5056085;28;20039;-75
2022/08/07 10:33:09;;;;;;;0.85;0.20;;;22.70;61.80;;;;;;5052947;28;20512;-75
2022/08/07 10:35:56;;;;;;;0.70;0.30;;;22.70;60.40;;;;;;5061568;28;20565;-75
2022/08/07 10:38:46;;;;;;;0.85;0.40;;;22.80;60.60;;;;;;5052289;28;20170;-76
2022/08/07 10:41:25;;;;;;;1.70;0.30;;;22.90;59.50;;;;;;5054375;28;20051;-75
2022/08/07 10:44:05;;;;;;;0.85;0.30;;;23.00;60.40;;;;;;5059792;28;20459;-76
2022/08/07 10:46:46;;;;;;;0.80;0.35;;;23.30;58.50;;;;;;5059711;28;20082;-75
2022/08/07 10:49:25;;;;;;;1.08;0.30;;;23.30;58.40;;;;;;5060447;28;20642;-75
2022/08/07 10:51:56;;;;;;;1.90;0.30;;;23.40;57.80;;;;;;5059182;28;20035;-75
2022/08/07 10:54:24;;;;;;;0.55;0.20;;;23.30;57.20;;;;;;5063922;28;20037;-75
2022/08/07 10:57:14;;;;;;;0.95;0.30;;;23.30;58.40;;;;;;5058119;28;20040;-75
2022/08/07 10:59:51;;;;;;;0.60;0.30;;;23.20;57.70;;;;;;5052096;28;20108;-75
2022/08/07 11:02:41;;;;;;;2.25;0.30;;;23.00;57.70;;;;;;5052984;28;20432;-75
2022/08/07 11:05:35;;;;;;;0.73;0.30;;;22.90;57.20;;;;;;5056367;28;20465;-75
2022/08/07 11:08:18;;;;;;;0.30;0.30;;;22.90;57.70;;;;;;5060706;28;20039;-75
2022/08/07 11:11:29;;;;;;;0.52;0.32;;;22.90;57.80;;;;;;5061501;28;20024;-75
2022/08/07 11:14:01;;;;;;;1.88;0.30;;;23.10;56.50;;;;;;4997811;28;20034;-75
2022/08/07 11:16:35;;;;;;;1.98;0.30;;;23.40;56.70;;;;;;5001230;28;20030;-76
2022/08/07 11:19:10;;;;;;;0.25;0.20;;;23.50;56.10;;;;;;5028681;28;20060;-75
2022/08/07 11:21:45;;;;;;;2.40;0.40;;;23.60;56.40;;;;;;5054265;28;20043;-75
2022/08/07 11:24:16;;;;;;;1.50;0.30;;;23.60;56.00;;;;;;5061364;28;20031;-75
2022/08/07 11:27:05;;;;;;;1.63;0.32;;;23.70;54.60;;;;;;5053903;28;20032;-76
2022/08/07 11:29:31;;;;;;;2.38;0.30;;;23.90;54.90;;;;;;5063477;28;20030;-75
2022/08/07 11:32:11;;;;;;;0.82;0.30;;;24.00;53.90;;;;;;5055410;28;20033;-76
2022/08/07 11:34:46;;;;;;;2.78;0.40;;;24.10;52.00;;;;;;5056499;28;20392;-76
2022/08/07 11:37:39;;;;;;;1.15;0.40;;;24.20;52.80;;;;;;5058724;28;20040;-76
2022/08/07 11:40:17;;;;;;;;;;;24.10;53.10;;;;;;5053195;28;20054;-79
2022/08/07 11:43:17;;;;;;;0.75;0.20;;;24.10;53.00;;;;;;5054341;28;20450;-83
2022/08/07 11:46:17;;;;;;;1.45;0.22;;;24.20;53.10;;;;;;5058362;28;20024;-76
2022/08/07 11:49:22;;;;;;;2.05;0.30;;;24.10;52.50;;;;;;5053977;28;20063;-78
2022/08/07 11:51:59;;;;;;;1.17;0.30;;;24.10;50.80;;;;;;5060104;28;20040;-79
2022/08/07 11:54:42;;;;;;;0.95;0.40;;;24.20;52.60;;;;;;5045472;28;20167;-81
2022/08/07 11:57:14;;;;;;;;;;;24.40;51.90;;;;;;5055599;28;20021;-79
2022/08/07 12:00:10;;;;;;;0.82;0.25;;;24.40;51.50;;;;;;5053247;28;19908;-80
2022/08/07 12:02:42;;;;;;;2.60;0.30;;;24.20;52.10;;;;;;5054137;28;20041;-79
2022/08/07 12:05:36;;;;;;;0.50;0.30;;;24.20;51.80;;;;;;5050538;28;20032;-81
2022/08/07 12:08:15;;;;;;;0.85;0.30;;;24.40;51.50;;;;;;5056209;28;20025;-81
2022/08/07 12:10:47;;;;;;;1.17;0.40;;;24.60;51.70;;;;;;5052978;28;20032;-81
2022/08/07 12:13:23;;;;;;;0.73;0.40;;;24.80;50.10;;;;;;5046776;28;20052;-81
2022/08/07 12:15:56;;;;;;;0.30;0.30;;;24.80;50.00;;;;;;5053505;28;20390;-81
2022/08/07 12:19:06;;;;;;;0.57;0.20;;;25.00;51.20;;;;;;5056114;28;20047;-81
2022/08/07 12:21:49;;;;;;;0.68;0.30;;;25.20;50.40;;;;;;5051004;28;20570;-83
2022/08/07 12:24:18;;;;;;;;;;;25.10;50.90;;;;;;5050481;28;20457;-81
2022/08/07 12:26:52;;;;;;;2.53;0.40;;;25.00;50.30;;;;;;5060202;28;20454;-81
2022/08/07 12:29:28;;;;;;;0.85;0.40;;;25.10;49.30;;;;;;5057549;28;20663;-81
2022/08/07 12:32:02;;;;;;;0.90;0.40;;;25.10;49.70;;;;;;5051832;28;20028;-81
2022/08/07 12:34:31;;;;;;;0.20;0.20;;;25.10;48.90;;;;;;5053418;28;20106;-82
2022/08/07 12:36:59;;;;;;;0.20;0.20;;;25.20;50.10;;;;;;5052751;28;20159;-82
2022/08/07 12:39:31;;;;;;;1.95;0.30;;;25.40;49.20;;;;;;5054894;28;20032;-81
2022/08/07 12:41:58;;;;;;;1.30;0.30;;;25.50;48.80;;;;;;5048786;28;20059;-80
2022/08/07 12:44:26;;;;;;;1.00;0.30;;;25.60;48.70;;;;;;5050446;28;20058;-81
2022/08/07 12:47:18;;;;;;;0.40;0.30;;;25.70;49.60;;;;;;5058573;28;20051;-82
2022/08/07 12:49:54;;;;;;;2.53;0.30;;;25.50;48.60;;;;;;5056764;28;20048;-82
2022/08/07 12:52:35;;;;;;;2.20;0.30;;;25.30;48.30;;;;;;5057425;28;20032;-81
2022/08/07 12:55:28;;;;;;;0.20;0.20;;;25.20;49.30;;;;;;5059137;28;20028;-82
2022/08/07 12:57:58;;;;;;;1.70;0.30;;;25.20;48.60;;;;;;5053481;28;20032;-83
2022/08/07 13:00:39;;;;;;;0.60;0.30;;;25.40;48.60;;;;;;5051067;28;20047;-85
2022/08/07 13:03:30;;;;;;;3.72;0.40;;;25.40;47.60;;;;;;5056435;28;20177;-85
2022/08/07 13:06:08;;;;;;;2.08;0.45;;;25.40;49.10;;;;;;5049599;28;20045;-84
2022/08/07 13:08:40;;;;;;;0.73;0.28;;;25.40;48.50;;;;;;4695495;28;10000594;-82
2022/08/07 13:11:58;;;;;;;1.75;0.30;;;25.40;47.70;;;;;;4693435;28;10000530;-84
2022/08/07 13:14:47;;;;;;;0.80;0.40;;;25.60;48.30;;;;;;4639932;28;10000171;-81
2022/08/07 13:17:24;;;;;;;0.22;0.22;;;25.70;49.20;;;;;;5038889;28;20684;-80
2022/08/07 13:19:59;;;;;;;0.40;0.30;;;25.60;49.30;;;;;;5046416;28;20035;-80